Time;durP1;ratioP1;P1;durP2;ratioP2;P2;SDS_P1;SDS_P2;PMS_P1;PMS_P2;Temp;Humidity;BMP_temperature;BMP_pressure;BME280_temperature;BME280_humidity;BME280_pressure;Samples;Min_cycle;Max_cycle;Signal;HPM_P1;HPM_P2
2021/09/18 00:01:23;;;;;;;7.15;4.82;;;17.40;71.30;;;;;;2476813;55;21013;-86
2021/09/18 00:03:49;;;;;;;7.68;4.70;;;17.30;71.20;;;;;;2464334;55;21110;-84
2021/09/18 00:06:15;;;;;;;5.12;3.75;;;17.30;71.20;;;;;;2484599;55;20990;-85
2021/09/18 00:08:41;;;;;;;6.57;4.18;;;17.30;71.30;;;;;;2480351;55;21030;-85
2021/09/18 00:11:08;;;;;;;5.95;4.40;;;17.20;71.20;;;;;;2452972;55;21632;-85
2021/09/18 00:13:34;;;;;;;4.82;3.50;;;17.20;71.30;;;;;;2478399;55;21180;-85
2021/09/18 00:16:00;;;;;;;5.47;3.83;;;17.20;71.30;;;;;;2474371;55;21004;-85
2021/09/18 00:18:26;;;;;;;5.82;4.20;;;17.10;71.20;;;;;;2470835;55;21056;-85
2021/09/18 00:20:53;;;;;;;5.50;3.55;;;17.10;71.20;;;;;;2257675;56;20994;-86
2021/09/18 00:23:20;;;;;;;4.72;3.12;;;17.10;71.30;;;;;;2261010;55;20996;-86
2021/09/18 00:25:46;;;;;;;4.75;3.40;;;17.00;71.10;;;;;;2484346;55;21658;-86
2021/09/18 00:28:12;;;;;;;4.15;3.03;;;16.90;71.00;;;;;;2458109;55;21001;-87
2021/09/18 00:30:39;;;;;;;4.87;3.45;;;16.90;71.10;;;;;;2460491;54;21470;-86
2021/09/18 00:33:05;;;;;;;4.18;2.78;;;16.90;71.10;;;;;;2490147;54;21017;-86
2021/09/18 00:35:31;;;;;;;4.62;3.37;;;16.80;71.00;;;;;;2492725;53;20993;-86
2021/09/18 00:37:58;;;;;;;4.05;2.92;;;16.80;71.00;;;;;;2484978;54;20988;-87
2021/09/18 00:40:24;;;;;;;4.28;3.03;;;16.70;70.90;;;;;;2263145;55;20989;-86
2021/09/18 00:42:50;;;;;;;4.65;3.17;;;16.70;70.90;;;;;;2487474;54;20984;-86
2021/09/18 00:45:17;;;;;;;5.50;3.50;;;16.70;70.90;;;;;;2493849;53;21365;-86
2021/09/18 00:47:43;;;;;;;4.70;3.20;;;16.60;70.80;;;;;;2261746;55;20983;-86
2021/09/18 00:50:09;;;;;;;6.30;3.83;;;16.60;70.90;;;;;;2467700;55;21006;-86
2021/09/18 00:52:36;;;;;;;5.32;3.28;;;16.50;70.90;;;;;;2256205;56;20991;-86
2021/09/18 00:55:02;;;;;;;5.35;3.75;;;16.50;71.00;;;;;;2477134;55;21907;-85
2021/09/18 00:57:28;;;;;;;4.15;2.97;;;16.50;71.00;;;;;;2470660;54;21069;-84
2021/09/18 01:00:01;;;;;;;4.55;3.33;;;16.40;71.00;;;;;;2478393;54;21551;-84
2021/09/18 01:02:27;;;;;;;5.12;3.05;;;16.40;71.10;;;;;;2460173;55;21087;-85
2021/09/18 01:04:54;;;;;;;4.53;2.87;;;16.40;71.10;;;;;;2446536;55;21049;-84
2021/09/18 01:07:20;;;;;;;4.32;2.95;;;16.30;71.00;;;;;;2241590;56;21038;-83
2021/09/18 01:09:47;;;;;;;5.30;2.85;;;16.30;71.10;;;;;;2455030;55;21017;-85
2021/09/18 01:12:13;;;;;;;3.55;2.58;;;16.20;71.20;;;;;;2272786;55;21020;-85
2021/09/18 01:14:44;;;;;;;4.90;2.75;;;16.20;71.30;;;;;;2266989;55;21072;-85
2021/09/18 01:17:10;;;;;;;3.92;2.85;;;16.20;71.10;;;;;;2463293;55;21107;-85
2021/09/18 01:19:36;;;;;;;3.60;2.45;;;16.20;71.30;;;;;;2448948;55;21874;-85
2021/09/18 01:22:03;;;;;;;4.47;2.47;;;16.10;71.10;;;;;;2280299;55;21208;-84
2021/09/18 01:24:30;;;;;;;3.67;2.62;;;16.10;71.10;;;;;;2483177;53;21358;-85
2021/09/18 01:26:57;;;;;;;3.62;2.47;;;16.10;71.10;;;;;;2495644;54;21070;-84
2021/09/18 01:29:23;;;;;;;3.92;2.90;;;16.00;71.10;;;;;;2458617;55;21148;-85
2021/09/18 01:31:50;;;;;;;4.25;2.85;;;16.00;71.10;;;;;;2471969;55;20992;-85
2021/09/18 01:34:21;;;;;;;4.90;2.55;;;16.00;71.20;;;;;;2259927;56;21092;-85
2021/09/18 01:36:48;;;;;;;5.10;2.95;;;16.00;71.20;;;;;;2266946;56;21043;-85
2021/09/18 01:39:15;;;;;;;6.22;3.30;;;15.90;70.90;;;;;;2456182;55;22279;-85
2021/09/18 01:41:42;;;;;;;4.40;3.30;;;15.90;71.40;;;;;;2483841;55;21064;-85
2021/09/18 01:44:08;;;;;;;4.75;3.10;;;15.90;71.30;;;;;;2241310;56;21971;-85
2021/09/18 01:46:34;;;;;;;4.30;2.90;;;15.80;71.20;;;;;;2263644;56;21048;-85
2021/09/18 01:49:01;;;;;;;4.20;3.10;;;15.80;71.20;;;;;;2476579;55;22185;-85
2021/09/18 01:51:30;;;;;;;4.03;2.90;;;15.80;71.30;;;;;;2259697;56;21585;-84
2021/09/18 01:53:56;;;;;;;4.30;3.10;;;15.80;71.40;;;;;;2243310;56;21519;-84
2021/09/18 01:56:23;;;;;;;3.62;2.58;;;15.70;71.20;;;;;;2484639;55;21447;-84
2021/09/18 01:58:49;;;;;;;4.22;2.85;;;15.70;71.20;;;;;;2264354;56;20989;-85
2021/09/18 02:01:16;;;;;;;5.05;3.30;;;15.60;71.20;;;;;;2475855;55;21946;-85
2021/09/18 02:03:42;;;;;;;4.93;3.42;;;15.60;71.30;;;;;;2269640;56;21096;-83
2021/09/18 02:06:09;;;;;;;4.35;2.70;;;15.60;71.40;;;;;;2249906;56;21010;-86
2021/09/18 02:08:35;;;;;;;5.28;3.20;;;15.50;71.50;;;;;;2480843;55;21031;-85
2021/09/18 02:11:02;;;;;;;3.70;2.37;;;15.50;71.60;;;;;;2481512;55;22178;-84
2021/09/18 02:13:28;;;;;;;4.12;3.05;;;15.50;71.60;;;;;;2470064;55;21966;-84
2021/09/18 02:15:55;;;;;;;4.65;2.97;;;15.40;71.40;;;;;;2265124;56;21044;-85
2021/09/18 02:18:22;;;;;;;4.28;3.15;;;15.50;71.30;;;;;;2481453;55;21030;-83
2021/09/18 02:20:48;;;;;;;5.85;3.60;;;15.50;71.40;;;;;;2248081;56;21311;-84
2021/09/18 02:23:14;;;;;;;4.72;3.28;;;15.40;71.30;;;;;;2255994;56;21039;-85
2021/09/18 02:25:41;;;;;;;4.12;2.80;;;15.40;71.40;;;;;;2256819;55;21083;-84
2021/09/18 02:28:07;;;;;;;6.10;3.17;;;15.40;71.40;;;;;;2260366;55;21007;-85
2021/09/18 02:30:34;;;;;;;3.70;2.50;;;15.40;71.60;;;;;;2250498;56;21075;-84
2021/09/18 02:33:01;;;;;;;4.78;2.75;;;15.30;71.50;;;;;;2268683;56;21154;-84
2021/09/18 02:35:28;;;;;;;3.72;2.70;;;15.40;71.70;;;;;;2260486;55;22061;-85
2021/09/18 02:37:55;;;;;;;3.80;2.62;;;15.30;71.60;;;;;;2268086;56;21025;-85
2021/09/18 02:40:22;;;;;;;3.28;2.33;;;15.30;71.60;;;;;;2483703;55;20996;-84
2021/09/18 02:42:52;;;;;;;6.00;2.42;;;15.30;71.70;;;;;;2484142;55;22006;-85
2021/09/18 02:45:19;;;;;;;3.75;2.42;;;15.30;71.50;;;;;;2484392;55;20952;-84
2021/09/18 02:47:45;;;;;;;4.45;2.90;;;15.30;71.60;;;;;;2471373;55;21068;-84
2021/09/18 02:50:13;;;;;;;4.15;2.90;;;15.20;71.40;;;;;;2482645;55;21868;-85
2021/09/18 02:52:39;;;;;;;5.70;3.10;;;15.20;71.40;;;;;;2264828;56;21064;-84
2021/09/18 02:55:06;;;;;;;4.00;2.92;;;15.20;71.30;;;;;;2267890;56;21120;-84
2021/09/18 02:57:32;;;;;;;4.25;2.85;;;15.10;71.30;;;;;;2267727;56;21044;-84
2021/09/18 02:59:59;;;;;;;4.93;3.33;;;15.10;71.40;;;;;;2267671;56;21309;-84
2021/09/18 03:02:25;;;;;;;4.30;2.83;;;15.10;71.50;;;;;;2264574;56;21020;-85
2021/09/18 03:04:51;;;;;;;4.57;3.40;;;15.00;71.40;;;;;;2483849;55;20995;-83
2021/09/18 03:07:18;;;;;;;6.15;3.72;;;15.00;71.40;;;;;;2484418;55;20988;-84
2021/09/18 03:09:44;;;;;;;4.40;3.15;;;15.00;71.50;;;;;;2263588;56;21109;-84
2021/09/18 03:12:10;;;;;;;4.12;2.85;;;15.00;71.50;;;;;;2485244;55;21012;-85
2021/09/18 03:14:37;;;;;;;4.05;2.53;;;15.00;71.50;;;;;;2246838;56;21034;-84
2021/09/18 03:17:03;;;;;;;4.43;2.87;;;14.90;71.40;;;;;;2485471;55;21029;-84
2021/09/18 03:19:29;;;;;;;4.07;2.97;;;14.90;71.50;;;;;;2262827;56;21001;-84
2021/09/18 03:21:56;;;;;;;4.57;2.83;;;14.80;71.40;;;;;;2265829;56;20972;-84
2021/09/18 03:24:22;;;;;;;6.00;3.17;;;14.90;71.50;;;;;;2446070;55;20968;-84
2021/09/18 03:26:48;;;;;;;4.75;3.40;;;14.90;71.60;;;;;;2483485;55;21004;-85
2021/09/18 03:29:15;;;;;;;3.37;2.45;;;14.80;71.50;;;;;;2460366;55;21133;-84
2021/09/18 03:31:42;;;;;;;4.25;3.15;;;14.80;71.50;;;;;;2229928;56;21051;-84
2021/09/18 03:34:08;;;;;;;4.72;3.37;;;14.80;71.60;;;;;;2460804;55;20978;-84
2021/09/18 03:36:35;;;;;;;4.90;3.30;;;14.70;71.50;;;;;;2480028;55;21590;-84
2021/09/18 03:39:01;;;;;;;4.10;2.90;;;14.80;71.70;;;;;;2478614;55;20995;-84
2021/09/18 03:41:27;;;;;;;4.10;2.90;;;14.70;71.60;;;;;;2262986;56;21068;-83
2021/09/18 03:43:54;;;;;;;5.78;3.08;;;14.70;71.50;;;;;;2250181;56;20999;-84
2021/09/18 03:46:20;;;;;;;4.80;3.62;;;14.70;71.50;;;;;;2271650;55;20960;-83
2021/09/18 03:48:46;;;;;;;4.57;3.42;;;14.70;71.70;;;;;;2478341;54;21043;-84
2021/09/18 03:51:13;;;;;;;5.03;3.80;;;14.70;71.70;;;;;;2456837;55;20993;-84
2021/09/18 03:53:39;;;;;;;5.45;3.30;;;14.60;71.70;;;;;;2475466;55;21808;-84
2021/09/18 03:56:06;;;;;;;4.28;3.17;;;14.60;71.80;;;;;;2481919;55;20948;-84
2021/09/18 03:58:32;;;;;;;4.25;3.10;;;14.60;71.80;;;;;;2484337;55;21010;-84
2021/09/18 04:00:58;;;;;;;4.00;2.80;;;14.60;71.80;;;;;;2480375;55;21009;-84
2021/09/18 04:03:25;;;;;;;5.53;3.65;;;14.50;71.70;;;;;;2265765;55;21038;-84
2021/09/18 04:05:52;;;;;;;4.37;3.10;;;14.60;71.90;;;;;;2261328;56;20991;-85
2021/09/18 04:08:19;;;;;;;4.30;3.17;;;14.50;71.80;;;;;;2479552;55;22028;-85
2021/09/18 04:10:45;;;;;;;4.40;3.17;;;14.50;71.90;;;;;;2469708;55;21108;-85
2021/09/18 04:13:11;;;;;;;4.75;3.58;;;14.50;71.90;;;;;;2267287;55;21072;-84
2021/09/18 04:15:37;;;;;;;6.18;3.00;;;14.50;71.90;;;;;;2487741;54;21032;-84
2021/09/18 04:18:06;;;;;;;4.28;2.97;;;14.50;71.90;;;;;;2247805;55;21000;-83
2021/09/18 04:20:32;;;;;;;5.20;3.40;;;14.50;71.80;;;;;;2236072;56;21064;-85
2021/09/18 04:22:59;;;;;;;4.97;3.35;;;14.40;71.80;;;;;;2246545;56;21009;-84
2021/09/18 04:25:25;;;;;;;4.15;2.95;;;14.40;71.80;;;;;;2256443;56;20962;-83
2021/09/18 04:27:52;;;;;;;4.72;2.92;;;14.50;71.90;;;;;;2494118;54;21045;-84
2021/09/18 04:30:18;;;;;;;4.62;3.30;;;14.40;71.70;;;;;;2486416;55;20978;-85
2021/09/18 04:32:44;;;;;;;3.95;2.37;;;14.40;71.70;;;;;;2271552;55;20954;-84
2021/09/18 04:35:11;;;;;;;4.57;2.95;;;14.40;71.90;;;;;;2491343;54;20973;-84
2021/09/18 04:37:38;;;;;;;4.35;3.08;;;14.40;71.90;;;;;;2268437;55;21019;-84
2021/09/18 04:40:05;;;;;;;3.83;2.70;;;14.30;71.80;;;;;;2476724;53;21081;-83
2021/09/18 04:42:31;;;;;;;4.37;2.92;;;14.30;71.90;;;;;;2494418;53;21906;-84
2021/09/18 04:44:57;;;;;;;6.07;2.78;;;14.30;71.90;;;;;;2483596;55;20956;-83
2021/09/18 04:47:24;;;;;;;4.28;2.90;;;14.30;72.00;;;;;;2286961;55;20998;-84
2021/09/18 04:49:50;;;;;;;4.20;2.87;;;14.30;72.00;;;;;;2258668;56;20982;-84
2021/09/18 04:52:16;;;;;;;4.80;3.17;;;14.30;72.10;;;;;;2449770;55;21056;-84
2021/09/18 04:54:43;;;;;;;3.97;2.75;;;14.30;72.20;;;;;;2244622;56;21076;-85
2021/09/18 04:57:09;;;;;;;4.65;3.03;;;14.10;72.00;;;;;;2257359;56;22026;-84
2021/09/18 04:59:35;;;;;;;4.60;2.87;;;14.30;72.20;;;;;;2259052;56;21072;-84
2021/09/18 05:02:02;;;;;;;4.37;2.97;;;14.30;72.20;;;;;;2480681;54;21039;-83
2021/09/18 05:04:28;;;;;;;3.95;2.80;;;14.30;72.20;;;;;;2478458;55;21026;-84
2021/09/18 05:06:56;;;;;;;4.25;2.83;;;14.30;72.20;;;;;;2262388;55;20984;-84
2021/09/18 05:09:23;;;;;;;4.28;2.90;;;14.20;72.10;;;;;;2241910;56;21469;-84
2021/09/18 05:11:49;;;;;;;4.37;2.95;;;14.20;72.20;;;;;;2269831;55;21978;-84
2021/09/18 05:14:17;;;;;;;3.97;2.78;;;14.30;72.40;;;;;;2265235;55;21036;-85
2021/09/18 05:16:43;;;;;;;3.85;2.62;;;14.30;72.50;;;;;;2454272;55;20975;-84
2021/09/18 05:19:10;;;;;;;4.37;3.00;;;14.30;72.70;;;;;;2242025;55;20983;-85
2021/09/18 05:21:36;;;;;;;4.00;2.75;;;14.30;72.80;;;;;;2252264;56;20975;-85
2021/09/18 05:24:02;;;;;;;4.70;3.00;;;14.30;72.80;;;;;;2249560;56;20936;-83
2021/09/18 05:26:29;;;;;;;4.90;3.22;;;14.30;72.80;;;;;;2480065;55;20929;-84
2021/09/18 05:28:55;;;;;;;5.28;3.50;;;14.30;72.90;;;;;;2473750;55;21066;-84
2021/09/18 05:31:22;;;;;;;5.03;3.67;;;14.30;73.00;;;;;;2476976;55;20993;-84
2021/09/18 05:33:48;;;;;;;4.70;3.35;;;14.30;73.00;;;;;;2478203;55;21058;-84
2021/09/18 05:36:17;;;;;;;5.07;3.58;;;14.30;73.00;;;;;;2476142;55;21023;-84
2021/09/18 05:38:43;;;;;;;5.30;3.97;;;14.40;73.10;;;;;;2229172;56;21030;-83
2021/09/18 05:41:09;;;;;;;5.32;3.80;;;14.40;73.10;;;;;;2434493;56;21054;-84
2021/09/18 05:43:36;;;;;;;4.82;3.58;;;14.40;73.20;;;;;;2464189;55;21088;-85
2021/09/18 05:46:02;;;;;;;4.82;3.25;;;14.40;73.30;;;;;;2266745;56;21041;-84
2021/09/18 05:48:30;;;;;;;5.25;3.50;;;14.40;73.30;;;;;;2471927;54;21034;-85
2021/09/18 05:50:56;;;;;;;4.65;3.17;;;14.50;73.50;;;;;;2267021;55;20979;-84
2021/09/18 05:53:23;;;;;;;4.60;3.50;;;14.50;73.60;;;;;;2447454;55;20941;-85
2021/09/18 05:55:49;;;;;;;4.70;3.33;;;14.50;73.60;;;;;;2245757;55;21027;-83
2021/09/18 05:58:17;;;;;;;6.57;3.17;;;14.50;73.70;;;;;;2449731;55;21062;-83
2021/09/18 06:00:43;;;;;;;7.07;3.25;;;14.60;73.80;;;;;;2456339;55;20992;-84
2021/09/18 06:03:09;;;;;;;4.43;3.05;;;14.60;73.90;;;;;;2457706;55;21062;-84
2021/09/18 06:05:36;;;;;;;5.32;3.95;;;14.60;73.90;;;;;;2428481;55;21615;-84
2021/09/18 06:08:03;;;;;;;5.28;3.50;;;14.70;74.20;;;;;;2233691;56;21070;-84
2021/09/18 06:10:29;;;;;;;5.43;3.80;;;14.70;74.30;;;;;;2469717;55;21028;-84
2021/09/18 06:12:56;;;;;;;4.62;3.35;;;14.80;74.40;;;;;;2253448;56;21012;-83
2021/09/18 06:15:22;;;;;;;5.37;3.75;;;14.80;74.50;;;;;;2484941;54;20929;-83
2021/09/18 06:17:48;;;;;;;6.12;3.80;;;14.90;74.60;;;;;;2476898;55;21013;-84
2021/09/18 06:20:15;;;;;;;6.15;4.50;;;14.90;74.70;;;;;;2263338;55;21043;-84
2021/09/18 06:22:41;;;;;;;5.93;4.53;;;15.00;74.90;;;;;;2486890;54;22351;-84
2021/09/18 06:25:11;;;;;;;5.28;3.97;;;15.00;74.90;;;;;;2466652;54;20982;-84
2021/09/18 06:27:40;;;;;;;5.70;4.20;;;15.10;75.10;;;;;;2264797;56;20994;-83
2021/09/18 06:30:07;;;;;;;7.53;4.40;;;15.20;75.30;;;;;;2482707;55;21001;-83
2021/09/18 06:32:33;;;;;;;5.72;3.62;;;15.30;75.60;;;;;;2260301;56;21485;-84
2021/09/18 06:35:00;;;;;;;5.47;4.03;;;15.30;76.40;;;;;;2267540;56;20999;-84
2021/09/18 06:37:27;;;;;;;6.50;3.83;;;15.40;75.90;;;;;;2237105;56;20999;-83
2021/09/18 06:39:54;;;;;;;6.12;4.57;;;15.50;76.20;;;;;;2240387;56;20963;-84
2021/09/18 06:42:20;;;;;;;7.18;5.32;;;15.60;76.40;;;;;;2478108;54;21000;-84
2021/09/18 06:44:46;;;;;;;7.30;5.60;;;15.70;76.70;;;;;;2486337;54;20944;-79
2021/09/18 06:47:13;;;;;;;9.02;6.47;;;15.80;76.90;;;;;;2499190;54;21003;-81
2021/09/18 06:49:39;;;;;;;8.18;6.60;;;15.90;77.00;;;;;;2484203;54;21043;-79
2021/09/18 06:52:06;;;;;;;8.48;6.50;;;16.00;77.00;;;;;;2252902;55;21004;-79
2021/09/18 06:54:32;;;;;;;10.00;6.80;;;16.10;77.20;;;;;;2458563;54;20940;-81
2021/09/18 06:56:58;;;;;;;10.07;7.43;;;16.20;77.40;;;;;;2495334;54;21030;-79
2021/09/18 06:59:25;;;;;;;8.80;6.50;;;16.30;77.40;;;;;;2469782;54;21007;-78
2021/09/18 07:01:51;;;;;;;9.35;6.95;;;16.40;77.50;;;;;;2278357;56;21031;-78
2021/09/18 07:04:17;;;;;;;7.60;5.93;;;16.50;77.50;;;;;;2251550;55;21766;-79
2021/09/18 07:06:44;;;;;;;6.93;5.68;;;16.60;77.50;;;;;;2481836;54;21649;-78
2021/09/18 07:09:10;;;;;;;9.75;6.80;;;16.70;77.40;;;;;;2261543;56;21071;-80
2021/09/18 07:11:37;;;;;;;8.82;6.47;;;16.80;77.30;;;;;;2446220;55;21111;-78
2021/09/18 07:14:03;;;;;;;9.63;6.72;;;16.90;77.30;;;;;;2464897;54;21027;-79
2021/09/18 07:16:29;;;;;;;8.93;6.85;;;17.00;77.10;;;;;;2467464;55;20960;-79
2021/09/18 07:18:56;;;;;;;7.72;5.97;;;17.10;77.10;;;;;;2469378;55;20973;-82
2021/09/18 07:21:23;;;;;;;7.78;5.97;;;17.10;76.80;;;;;;2257023;55;21075;-79
2021/09/18 07:23:49;;;;;;;7.93;6.53;;;17.20;76.80;;;;;;2234083;56;21040;-79
2021/09/18 07:26:15;;;;;;;10.98;6.90;;;17.30;76.70;;;;;;2249330;56;21015;-79
2021/09/18 07:28:42;;;;;;;8.45;6.15;;;17.40;76.60;;;;;;2472185;54;21114;-78
2021/09/18 07:31:08;;;;;;;8.70;6.70;;;17.40;76.50;;;;;;2468367;54;20977;-83
2021/09/18 07:33:35;;;;;;;8.02;6.32;;;17.50;76.40;;;;;;2485386;54;21000;-78
2021/09/18 07:36:03;;;;;;;7.97;5.47;;;17.50;76.20;;;;;;2260524;56;21391;-79
2021/09/18 07:38:29;;;;;;;8.40;6.20;;;17.60;76.30;;;;;;2251442;56;21124;-79
2021/09/18 07:40:56;;;;;;;8.45;6.25;;;17.60;76.30;;;;;;2267300;55;20960;-79
2021/09/18 07:43:23;;;;;;;9.13;6.28;;;17.70;76.30;;;;;;2222439;57;20956;-78
2021/09/18 07:45:49;;;;;;;8.93;6.50;;;17.70;76.20;;;;;;2439125;55;21190;-80
2021/09/18 07:48:16;;;;;;;8.57;6.62;;;17.80;76.30;;;;;;2463174;55;21037;-80
2021/09/18 07:50:42;;;;;;;8.43;6.03;;;17.80;76.40;;;;;;2234281;56;21047;-80
2021/09/18 07:53:08;;;;;;;8.75;6.45;;;17.90;76.50;;;;;;2252151;55;20968;-79
2021/09/18 07:55:37;;;;;;;8.13;5.55;;;18.00;76.50;;;;;;2260410;55;20937;-82
2021/09/18 07:58:11;;;;;;;7.37;5.75;;;18.00;76.40;;;;;;2265210;55;20957;-82
2021/09/18 08:00:37;;;;;;;7.70;5.97;;;18.10;76.60;;;;;;2485264;54;21644;-83
2021/09/18 08:03:03;;;;;;;7.40;5.65;;;18.20;76.70;;;;;;2254066;55;21004;-82
2021/09/18 08:05:30;;;;;;;7.47;5.78;;;18.20;76.40;;;;;;2284196;55;21014;-83
2021/09/18 08:07:58;;;;;;;6.97;5.55;;;18.30;76.20;;;;;;2468519;55;21071;-83
2021/09/18 08:10:24;;;;;;;6.78;5.28;;;18.30;76.10;;;;;;2248670;56;21023;-82
2021/09/18 08:12:50;;;;;;;7.75;5.22;;;18.40;76.10;;;;;;2265374;56;21371;-82
2021/09/18 08:15:17;;;;;;;5.97;4.68;;;18.40;76.10;;;;;;2256326;56;21058;-82
2021/09/18 08:17:44;;;;;;;6.90;4.93;;;18.50;76.20;;;;;;2260062;56;21004;-82
2021/09/18 08:20:11;;;;;;;5.78;4.40;;;18.60;76.20;;;;;;2243300;56;21756;-82
2021/09/18 08:22:37;;;;;;;6.03;4.50;;;18.70;76.30;;;;;;2246209;56;22396;-82
2021/09/18 08:25:07;;;;;;;7.43;5.12;;;18.70;76.30;;;;;;2485408;54;21662;-82
2021/09/18 08:27:34;;;;;;;6.12;4.95;;;18.80;75.80;;;;;;2264825;55;20992;-82
2021/09/18 08:30:00;;;;;;;6.28;4.65;;;18.80;76.00;;;;;;2511533;53;21017;-82
2021/09/18 08:32:27;;;;;;;6.30;3.92;;;18.90;76.30;;;;;;2254170;55;21784;-81
2021/09/18 08:34:54;;;;;;;5.90;4.00;;;18.90;76.30;;;;;;2271841;55;21001;-83
2021/09/18 08:37:20;;;;;;;5.37;4.20;;;19.00;76.20;;;;;;2292280;55;21034;-82
2021/09/18 08:39:47;;;;;;;5.62;3.72;;;19.10;76.20;;;;;;2493013;53;20985;-82
2021/09/18 08:42:14;;;;;;;4.65;3.47;;;19.20;76.40;;;;;;2508327;53;20974;-82
2021/09/18 08:44:40;;;;;;;4.50;3.28;;;19.30;76.60;;;;;;2271986;55;20987;-81
2021/09/18 08:47:07;;;;;;;4.50;3.37;;;19.40;76.60;;;;;;2480661;54;21549;-82
2021/09/18 08:49:33;;;;;;;4.57;3.53;;;19.50;76.50;;;;;;2490502;55;21581;-82
2021/09/18 08:52:00;;;;;;;4.80;3.53;;;19.60;76.30;;;;;;2269118;56;21057;-83
2021/09/18 08:54:27;;;;;;;4.15;3.28;;;19.60;76.20;;;;;;2284862;55;20997;-83
2021/09/18 08:56:53;;;;;;;4.65;3.33;;;19.70;76.40;;;;;;2488278;54;21393;-83
2021/09/18 08:59:20;;;;;;;5.10;3.87;;;19.80;76.50;;;;;;2259483;55;21287;-83
2021/09/18 09:02:30;;;;;;;5.00;3.50;;;19.90;76.20;;;;;;2487596;54;20941;-83
2021/09/18 09:05:09;;;;;;;4.68;3.60;;;20.00;74.60;;;;;;2486550;55;20957;-83
2021/09/18 09:07:36;;;;;;;6.07;3.25;;;20.10;74.60;;;;;;2489020;54;21032;-83
2021/09/18 09:10:06;;;;;;;4.55;3.53;;;20.00;75.60;;;;;;2255701;55;20995;-83
2021/09/18 09:12:38;;;;;;;6.93;4.22;;;20.20;75.70;;;;;;2488548;54;21005;-84
2021/09/18 09:15:12;;;;;;;5.67;3.60;;;20.20;75.90;;;;;;2476182;54;21024;-83
2021/09/18 09:17:40;;;;;;;7.12;3.50;;;20.30;75.40;;;;;;2258511;55;21027;-83
2021/09/18 09:20:08;;;;;;;4.62;3.37;;;20.40;75.60;;;;;;2503351;53;21492;-83
2021/09/18 09:22:44;;;;;;;4.50;3.50;;;20.40;75.40;;;;;;2466540;55;21499;-83
2021/09/18 09:25:30;;;;;;;5.32;3.65;;;20.50;74.70;;;;;;2490462;54;21054;-84
2021/09/18 09:27:57;;;;;;;4.85;3.75;;;20.50;74.00;;;;;;2262389;56;20985;-83
2021/09/18 09:30:32;;;;;;;4.68;3.60;;;20.60;75.50;;;;;;2475912;54;22096;-82
2021/09/18 09:33:08;;;;;;;4.65;3.35;;;20.70;74.60;;;;;;2490386;54;21033;-83
2021/09/18 09:35:35;;;;;;;4.62;3.25;;;20.80;74.60;;;;;;2285450;55;20998;-83
2021/09/18 09:38:02;;;;;;;5.55;3.72;;;20.80;75.50;;;;;;2266635;55;20961;-83
2021/09/18 09:40:45;;;;;;;5.00;3.75;;;20.80;75.40;;;;;;2495471;53;20990;-83
2021/09/18 09:43:14;;;;;;;5.15;3.45;;;20.90;74.80;;;;;;2490327;54;20957;-83
2021/09/18 09:45:41;;;;;;;4.70;3.60;;;20.90;75.20;;;;;;2490747;55;21012;-83
2021/09/18 09:48:15;;;;;;;6.70;4.10;;;21.00;75.10;;;;;;2270357;55;20953;-83
2021/09/18 09:50:43;;;;;;;6.12;3.78;;;21.10;74.70;;;;;;2508475;53;20966;-83
2021/09/18 09:53:26;;;;;;;4.62;3.30;;;21.10;75.10;;;;;;2490741;54;20957;-83
2021/09/18 09:55:52;;;;;;;5.95;3.33;;;21.20;74.20;;;;;;2272432;55;20985;-84
2021/09/18 09:58:18;;;;;;;5.47;3.78;;;21.30;75.30;;;;;;2259439;55;20957;-84
2021/09/18 10:00:49;;;;;;;4.43;3.22;;;21.30;75.10;;;;;;2285109;55;22004;-83
2021/09/18 10:03:18;;;;;;;5.95;3.70;;;21.40;75.00;;;;;;2495427;53;20993;-83
2021/09/18 10:05:44;;;;;;;5.25;3.60;;;21.40;75.00;;;;;;2490637;54;21017;-83
2021/09/18 10:08:11;;;;;;;4.50;3.55;;;21.50;75.20;;;;;;2479041;54;21017;-83
2021/09/18 10:10:37;;;;;;;5.55;3.95;;;21.60;75.20;;;;;;2483462;54;20997;-86
2021/09/18 10:13:03;;;;;;;5.30;3.60;;;21.70;75.40;;;;;;2261481;56;21469;-83
2021/09/18 10:15:30;;;;;;;4.85;3.20;;;21.70;75.60;;;;;;2478474;55;20984;-83
2021/09/18 10:17:58;;;;;;;4.22;3.33;;;21.80;75.60;;;;;;2442636;55;20992;-84
2021/09/18 10:23:15;;;;;;;5.80;4.10;;;22.00;75.40;;;;;;2461610;55;21391;-82
2021/09/18 10:25:45;;;;;;;6.10;4.10;;;22.10;75.20;;;;;;2449394;55;20944;-81
2021/09/18 10:28:21;;;;;;;6.12;3.92;;;22.20;75.00;;;;;;2449102;55;20936;-82
2021/09/18 10:30:55;;;;;;;5.50;3.58;;;22.30;73.60;;;;;;2258446;55;21110;-81
2021/09/18 10:33:38;;;;;;;6.15;3.50;;;22.30;74.00;;;;;;2458386;55;20995;-81
2021/09/18 10:36:18;;;;;;;4.95;3.50;;;22.40;73.00;;;;;;2249937;56;20973;-81
2021/09/18 10:38:52;;;;;;;4.93;3.37;;;22.50;73.60;;;;;;2478365;55;21065;-82
2021/09/18 10:41:20;;;;;;;3.83;2.83;;;22.60;74.30;;;;;;2266493;55;21064;-82
2021/09/18 10:44:04;;;;;;;4.53;3.10;;;22.70;74.70;;;;;;2462830;55;20948;-84
2021/09/18 10:47:04;;;;;;;4.07;3.05;;;22.80;73.20;;;;;;2471711;55;20976;-81
2021/09/18 10:49:37;;;;;;;5.10;2.78;;;22.90;72.60;;;;;;2262174;55;21080;-82
2021/09/18 10:52:29;;;;;;;5.12;2.90;;;23.00;74.30;;;;;;2262039;55;21811;-81
2021/09/18 10:55:29;;;;;;;4.00;2.72;;;23.10;73.20;;;;;;2476815;55;20958;-83
2021/09/18 10:58:07;;;;;;;4.80;3.53;;;23.20;72.50;;;;;;2478549;54;20996;-81
2021/09/18 11:00:37;;;;;;;4.22;2.92;;;23.30;73.50;;;;;;2463510;55;21416;-82
2021/09/18 11:03:03;;;;;;;4.55;2.90;;;23.40;73.90;;;;;;2460128;55;21489;-83
2021/09/18 11:05:44;;;;;;;5.50;3.65;;;23.40;74.20;;;;;;2460418;55;21395;-82
2021/09/18 11:08:21;;;;;;;4.22;3.17;;;23.50;72.40;;;;;;2468294;55;21003;-81
2021/09/18 11:11:12;;;;;;;4.70;3.15;;;23.60;71.90;;;;;;2465343;55;21062;-82
2021/09/18 11:13:42;;;;;;;5.35;2.60;;;23.70;72.40;;;;;;2265649;56;20979;-82
2021/09/18 11:16:31;;;;;;;3.67;2.65;;;23.80;73.30;;;;;;2247923;56;20965;-85
2021/09/18 11:18:59;;;;;;;4.35;2.90;;;23.80;71.80;;;;;;2477913;54;21430;-82
2021/09/18 11:21:27;;;;;;;4.00;2.95;;;23.80;73.00;;;;;;2477282;54;21023;-82
2021/09/18 11:24:07;;;;;;;3.65;2.58;;;23.90;72.80;;;;;;2475812;55;20948;-82
2021/09/18 11:26:51;;;;;;;3.40;2.35;;;24.00;72.90;;;;;;2472414;55;21442;-82
2021/09/18 11:29:37;;;;;;;4.37;2.40;;;24.10;71.90;;;;;;2436886;55;21019;-82
2021/09/18 11:32:11;;;;;;;3.67;2.37;;;24.20;71.70;;;;;;2255265;56;21045;-81
2021/09/18 11:34:51;;;;;;;3.85;2.50;;;24.30;72.90;;;;;;2269107;55;21001;-82
2021/09/18 11:37:37;;;;;;;3.33;2.22;;;24.40;72.50;;;;;;2491840;53;20978;-83
2021/09/18 11:40:11;;;;;;;4.10;2.50;;;24.40;70.90;;;;;;2271262;56;21116;-81
2021/09/18 11:42:44;;;;;;;3.22;2.28;;;24.50;71.90;;;;;;2443795;55;21814;-82
2021/09/18 11:45:21;;;;;;;3.78;2.40;;;24.60;72.40;;;;;;2266791;55;21159;-84
2021/09/18 11:47:48;;;;;;;3.78;2.10;;;24.70;71.90;;;;;;2464016;54;21138;-83
2021/09/18 11:50:20;;;;;;;3.28;2.00;;;24.70;71.90;;;;;;2473402;55;21127;-82
2021/09/18 11:52:46;;;;;;;3.22;2.12;;;24.80;70.90;;;;;;2479648;54;20976;-81
2021/09/18 11:55:31;;;;;;;3.42;2.12;;;24.90;71.70;;;;;;2486558;54;20956;-82
2021/09/18 11:58:13;;;;;;;2.90;2.05;;;25.00;69.20;;;;;;2474510;54;21024;-81
2021/09/18 12:00:53;;;;;;;3.00;1.90;;;25.00;69.80;;;;;;2477380;54;21076;-81
2021/09/18 12:03:41;;;;;;;3.15;1.80;;;25.00;69.30;;;;;;2262803;55;21086;-81
2021/09/18 12:06:10;;;;;;;3.28;1.75;;;25.10;68.50;;;;;;2231482;56;21102;-83
2021/09/18 12:08:37;;;;;;;3.03;1.50;;;25.20;70.90;;;;;;2478370;55;21006;-81
2021/09/18 12:11:13;;;;;;;2.30;1.45;;;25.20;71.00;;;;;;2458522;55;21562;-82
2021/09/18 12:13:47;;;;;;;3.10;2.10;;;25.30;69.30;;;;;;2236436;57;21020;-81
2021/09/18 12:16:13;;;;;;;3.28;1.90;;;25.30;70.50;;;;;;2472208;55;21486;-80
2021/09/18 12:18:44;;;;;;;3.22;1.70;;;25.40;70.40;;;;;;2247428;55;21012;-81
2021/09/18 12:21:15;;;;;;;3.08;1.70;;;25.40;70.30;;;;;;2465378;54;21151;-83
2021/09/18 12:23:47;;;;;;;3.10;1.80;;;25.50;70.10;;;;;;2262490;55;21521;-82
2021/09/18 12:26:14;;;;;;;2.42;1.58;;;25.50;69.70;;;;;;2262761;55;21174;-83
2021/09/18 12:28:40;;;;;;;3.10;1.62;;;25.60;70.20;;;;;;2263259;55;21025;-82
2021/09/18 12:31:15;;;;;;;3.20;1.90;;;25.70;70.30;;;;;;2267890;55;20976;-82
2021/09/18 12:33:41;;;;;;;4.03;2.55;;;25.70;68.60;;;;;;2241793;56;20948;-82
2021/09/18 12:36:12;;;;;;;3.50;2.12;;;25.70;69.60;;;;;;2236656;56;20931;-83
2021/09/18 12:38:39;;;;;;;2.87;1.85;;;25.80;68.50;;;;;;2473192;54;21048;-82
2021/09/18 12:41:07;;;;;;;3.28;1.98;;;25.80;69.00;;;;;;2475326;54;20994;-81
2021/09/18 12:43:34;;;;;;;3.33;2.03;;;25.80;68.70;;;;;;2263712;55;21104;-82
2021/09/18 12:46:11;;;;;;;3.20;1.95;;;25.90;68.70;;;;;;2262337;56;20980;-83
2021/09/18 12:48:38;;;;;;;3.25;2.10;;;25.90;66.50;;;;;;2459317;55;21124;-83
2021/09/18 12:51:09;;;;;;;3.40;1.98;;;25.90;68.00;;;;;;2244991;56;21515;-80
2021/09/18 12:53:47;;;;;;;2.90;1.70;;;25.90;67.70;;;;;;2468404;55;20993;-81
2021/09/18 12:56:21;;;;;;;3.03;1.80;;;25.90;66.90;;;;;;2258495;55;20957;-82